Decoded Metar for LEPP (PAMPLONA in SPAIN) (IATA:PNA) | Meteo·Mobile Aviation Weather
aviador You're here:

LEPP Decoded Metar

PAMPLONA in SPAIN
Report Time2019-01-18 11:30:00
UTC Time2019-01-18 11:41:00
Flight Rules vfr VFR
WindVRB at 01 kt
Visibility9000 m
Phenomena:N/A
Clouds:Few 016 Hf
Scattered 042 Hf
Expected CloudBase > 1,200 ft AGL from Temp-Dew spread
CeilingNone
Temp05°C (ISA -7)
Dew Point02°C (81% RH)
AAT3.0°C
QNH1019 hPa
Density Alt561 ft
Elevation1,506 ft
Report Wrong Elevation
Raw Report
METAR LEPP 181130Z VRB01KT 9000 FEW016 SCT042 05/02 Q1019=

Extra information for LEPP:More info

Metar Taf Metar & Taf Last 4 Metars F.Rules Stats Wind Profile Meteogram Temp Stats Airport Information Weather charts Add Link Nearby VenuesMetar ALERT Operation Metar Decoded Social comments